createdAt,value
2018-06-02T00:00:37.901Z,9.60
2018-06-02T00:01:37.898Z,8.60
2018-06-02T00:02:37.889Z,8.20
2018-06-02T00:03:37.889Z,8.00
2018-06-02T00:04:37.884Z,9.40
2018-06-02T00:05:37.882Z,7.60
2018-06-02T00:06:37.874Z,8.10
2018-06-02T00:07:37.873Z,7.60
2018-06-02T00:08:37.872Z,7.10
2018-06-02T00:09:37.870Z,6.60
2018-06-02T00:10:37.865Z,7.10
2018-06-02T00:11:37.858Z,7.00
2018-06-02T00:12:37.855Z,7.50
2018-06-02T00:13:37.857Z,7.20
2018-06-02T00:14:37.854Z,7.20
2018-06-02T00:15:37.850Z,7.30
2018-06-02T00:16:37.840Z,8.10
2018-06-02T00:17:37.830Z,7.00
2018-06-02T00:18:37.833Z,7.00
2018-06-02T00:19:37.830Z,7.20
2018-06-02T00:20:37.824Z,7.30
2018-06-02T00:21:37.828Z,7.60
2018-06-02T00:22:37.822Z,7.00
2018-06-02T00:23:37.817Z,6.90
2018-06-02T00:24:37.813Z,8.50
2018-06-02T00:25:37.806Z,8.50
2018-06-02T00:26:37.808Z,6.60
2018-06-02T00:27:37.806Z,8.80
2018-06-02T00:28:37.802Z,6.50
2018-06-02T00:29:37.821Z,7.10
2018-06-02T00:30:37.809Z,7.00
2018-06-02T00:31:37.789Z,7.20
2018-06-02T00:32:37.806Z,7.80
2018-06-02T00:33:37.780Z,7.60
2018-06-02T00:34:37.781Z,8.90
2018-06-02T00:35:37.774Z,7.50
2018-06-02T00:36:37.767Z,9.10
2018-06-02T00:37:37.766Z,8.00
2018-06-02T00:38:37.764Z,9.10
2018-06-02T00:39:37.756Z,9.40
2018-06-02T00:40:37.752Z,9.60
2018-06-02T00:41:37.739Z,8.80
2018-06-02T00:42:37.743Z,10.20
2018-06-02T00:43:37.745Z,9.90
2018-06-02T00:44:37.737Z,10.00
2018-06-02T00:45:37.733Z,10.60
2018-06-02T00:46:37.729Z,10.00
2018-06-02T00:47:37.731Z,8.50
2018-06-02T00:48:37.726Z,9.60
2018-06-02T00:49:37.744Z,9.60
2018-06-02T00:50:37.716Z,10.00
2018-06-02T00:51:37.711Z,9.90
2018-06-02T00:52:37.708Z,9.30
2018-06-02T00:53:37.710Z,9.10
2018-06-02T00:54:37.704Z,10.10
2018-06-02T00:55:37.698Z,9.20
2018-06-02T00:56:37.694Z,10.60
2018-06-02T00:57:37.696Z,9.80
2018-06-02T00:58:37.687Z,9.00
2018-06-02T00:59:37.689Z,10.10
2018-06-02T01:00:37.680Z,8.30
2018-06-02T01:01:37.673Z,9.60
2018-06-02T01:02:37.671Z,8.00
2018-06-02T01:03:37.671Z,8.30
2018-06-02T01:04:37.670Z,8.30
2018-06-02T01:05:37.660Z,7.50
2018-06-02T01:06:37.655Z,8.10
2018-06-02T01:07:37.654Z,7.80
2018-06-02T01:08:37.651Z,8.50
2018-06-02T01:09:37.648Z,8.30
2018-06-02T01:10:37.645Z,7.60
2018-06-02T01:11:37.641Z,8.80
2018-06-02T01:12:37.635Z,9.10
2018-06-02T01:13:37.632Z,8.20
2018-06-02T01:14:37.634Z,8.40
2018-06-02T01:15:37.624Z,9.50
2018-06-02T01:16:37.624Z,8.30
2018-06-02T01:17:37.618Z,8.40
2018-06-02T01:18:37.612Z,7.90
2018-06-02T01:19:37.612Z,7.90
2018-06-02T01:20:37.602Z,7.80
2018-06-02T01:21:37.604Z,8.20
2018-06-02T01:22:37.599Z,8.60
2018-06-02T01:23:37.600Z,7.40
2018-06-02T01:24:37.588Z,7.20
2018-06-02T01:25:37.587Z,7.70
2018-06-02T01:26:37.582Z,8.30
2018-06-02T01:27:37.582Z,7.50
2018-06-02T01:28:37.572Z,7.60
2018-06-02T01:29:37.577Z,8.10
2018-06-02T01:30:37.568Z,7.90
2018-06-02T02:03:37.254Z,5.40
2018-06-02T02:04:37.226Z,9.90
2018-06-02T02:06:30.242Z,9.00
2018-06-02T02:07:30.220Z,10.30
2018-06-02T02:09:23.112Z,9.20
2018-06-02T02:10:23.100Z,9.50
2018-06-02T02:12:16.012Z,9.80
2018-06-02T02:13:15.994Z,11.40
2018-06-02T02:15:08.879Z,10.60
2018-06-02T02:16:08.855Z,10.30
2018-06-02T02:18:01.783Z,8.30
2018-06-02T02:19:01.775Z,8.00
2018-06-02T02:20:54.799Z,7.70
2018-06-02T02:21:54.765Z,7.60
2018-06-02T02:23:47.753Z,7.30
2018-06-02T02:24:47.737Z,7.30
2018-06-02T02:26:40.646Z,8.00
2018-06-02T02:27:40.623Z,9.50
2018-06-02T02:29:33.539Z,8.50
2018-06-02T02:30:33.526Z,8.60
2018-06-02T02:32:26.441Z,8.10
2018-06-02T02:33:26.422Z,9.50
2018-06-02T02:35:19.409Z,8.50
2018-06-02T02:36:19.375Z,9.60
2018-06-02T02:38:12.356Z,9.40
2018-06-02T02:39:12.321Z,8.30
2018-06-02T02:41:05.269Z,8.40
2018-06-02T02:42:05.248Z,8.60
2018-06-02T02:43:58.205Z,8.80
2018-06-02T02:44:58.203Z,8.90
2018-06-02T02:46:51.116Z,8.60
2018-06-02T02:47:51.097Z,9.20
2018-06-02T02:49:44.058Z,10.00
2018-06-02T02:50:44.051Z,9.30
2018-06-02T02:52:36.957Z,9.40
2018-06-02T02:53:36.925Z,10.00
2018-06-02T02:55:29.913Z,9.70
2018-06-02T02:56:29.901Z,9.50
2018-06-02T02:58:22.825Z,10.60
2018-06-02T02:59:22.805Z,9.60
2018-06-02T03:01:15.765Z,9.40
2018-06-02T03:02:15.748Z,10.50
2018-06-02T03:04:09.756Z,9.30
2018-06-02T03:05:09.735Z,9.30
2018-06-02T03:07:02.653Z,9.80
2018-06-02T03:08:02.631Z,9.30
2018-06-02T03:09:55.571Z,9.40
2018-06-02T03:10:55.550Z,9.10
2018-06-02T03:12:48.521Z,10.60
2018-06-02T03:13:48.497Z,11.50
2018-06-02T03:15:41.440Z,10.70
2018-06-02T03:16:41.423Z,10.80
2018-06-02T03:18:34.428Z,13.00
2018-06-02T03:19:34.409Z,13.10
2018-06-02T03:21:27.342Z,13.80
2018-06-02T03:22:27.327Z,13.80
2018-06-02T03:24:20.325Z,13.50
2018-06-02T03:25:20.318Z,13.60
2018-06-02T03:27:13.275Z,15.10
2018-06-02T03:28:13.248Z,12.80
2018-06-02T03:30:06.164Z,14.50
2018-06-02T03:31:06.159Z,14.30
2018-06-02T03:32:59.062Z,15.10
2018-06-02T03:33:59.045Z,10.70
2018-06-02T03:35:51.981Z,13.70
2018-06-02T03:36:51.968Z,13.80
2018-06-02T03:38:44.978Z,14.20
2018-06-02T03:39:44.946Z,13.10
2018-06-02T03:41:37.975Z,16.20
2018-06-02T03:42:37.952Z,15.00
2018-06-02T03:44:30.906Z,15.70
2018-06-02T03:45:30.890Z,15.50
2018-06-02T03:47:23.842Z,18.10
2018-06-02T03:48:23.810Z,16.80
2018-06-02T03:50:16.822Z,16.00
2018-06-02T03:51:16.800Z,17.10
2018-06-02T03:53:09.783Z,17.40
2018-06-02T03:54:09.761Z,16.50
2018-06-02T03:56:02.692Z,15.00
2018-06-02T03:57:02.673Z,15.30
2018-06-02T03:58:55.594Z,14.70
2018-06-02T03:59:55.559Z,13.60
2018-06-02T04:01:48.474Z,13.50
2018-06-02T04:02:48.455Z,16.30
2018-06-02T04:04:41.463Z,16.90
2018-06-02T04:05:41.440Z,15.60
2018-06-02T04:07:34.457Z,16.50
2018-06-02T04:08:34.423Z,15.30
2018-06-02T04:10:27.319Z,14.60
2018-06-02T04:11:27.306Z,11.50
2018-06-02T04:13:20.264Z,10.30
2018-06-02T04:14:20.240Z,8.80
2018-06-02T04:16:13.159Z,7.50
2018-06-02T04:17:13.146Z,7.00
2018-06-02T04:19:07.063Z,9.00
2018-06-02T04:20:07.048Z,7.40
2018-06-02T04:22:00.010Z,7.80
2018-06-02T04:22:59.984Z,8.00
2018-06-02T04:24:52.995Z,8.50
2018-06-02T04:25:52.989Z,8.40
2018-06-02T04:27:45.941Z,7.90
2018-06-02T04:28:45.922Z,7.70
2018-06-02T04:30:38.826Z,7.50
2018-06-02T04:31:38.811Z,7.90
2018-06-02T04:33:31.840Z,7.50
2018-06-02T04:34:31.817Z,8.00
2018-06-02T04:36:24.746Z,7.80
2018-06-02T04:37:24.729Z,8.10
2018-06-02T04:39:17.746Z,7.90
2018-06-02T04:40:17.732Z,7.60
2018-06-02T04:42:10.694Z,7.60
2018-06-02T04:43:10.674Z,9.70
2018-06-02T04:45:03.661Z,7.80
2018-06-02T04:46:03.670Z,7.40
2018-06-02T04:47:56.566Z,8.00
2018-06-02T04:48:56.553Z,8.00
2018-06-02T04:50:49.574Z,7.50
2018-06-02T04:51:49.558Z,7.60
2018-06-02T04:53:42.527Z,8.30
2018-06-02T04:54:42.506Z,8.50
2018-06-02T04:56:35.514Z,8.80
2018-06-02T04:57:35.505Z,8.40
2018-06-02T04:59:28.529Z,8.20
2018-06-02T05:00:28.510Z,8.00
2018-06-02T05:02:21.553Z,7.70
2018-06-02T05:03:21.538Z,8.10
2018-06-02T05:05:14.521Z,9.30
2018-06-02T05:06:14.518Z,8.30
2018-06-02T05:08:07.514Z,8.30
2018-06-02T05:09:07.498Z,7.90
2018-06-02T05:11:00.395Z,8.00
2018-06-02T05:12:00.383Z,8.60
2018-06-02T05:13:53.299Z,8.20
2018-06-02T05:14:53.271Z,8.50
2018-06-02T05:16:46.265Z,8.40
2018-06-02T05:17:46.253Z,8.00
2018-06-02T05:19:39.296Z,8.30
2018-06-02T05:20:39.277Z,7.80
2018-06-02T05:22:32.218Z,7.90
2018-06-02T05:23:32.198Z,7.10
2018-06-02T05:25:25.096Z,7.70
2018-06-02T05:26:25.087Z,6.70
2018-06-02T05:28:17.988Z,7.40
2018-06-02T05:29:17.978Z,7.20
2018-06-02T05:31:10.868Z,7.20
2018-06-02T05:32:10.861Z,7.80
2018-06-02T05:34:03.794Z,7.00
2018-06-02T05:35:03.780Z,7.10
2018-06-02T05:36:56.749Z,9.10
2018-06-02T05:37:56.740Z,7.20
2018-06-02T05:39:49.666Z,6.80
2018-06-02T05:40:49.649Z,6.80
2018-06-02T05:42:42.617Z,6.70
2018-06-02T05:43:42.578Z,7.10
2018-06-02T05:45:35.599Z,7.30
2018-06-02T05:46:35.587Z,7.20
2018-06-02T05:48:28.602Z,7.00
2018-06-02T05:49:28.581Z,6.90
2018-06-02T05:51:21.566Z,6.70
2018-06-02T05:52:21.546Z,7.00
2018-06-02T05:54:14.578Z,6.60
2018-06-02T05:55:14.550Z,6.60
2018-06-02T05:57:07.563Z,6.60
2018-06-02T05:58:07.547Z,6.40
2018-06-02T06:00:00.655Z,6.40
2018-06-02T06:01:00.593Z,6.00
2018-06-02T06:02:53.574Z,6.10
2018-06-02T06:03:53.544Z,6.40
2018-06-02T06:05:46.594Z,6.10
2018-06-02T06:06:46.575Z,5.60
2018-06-02T06:08:39.492Z,5.90
2018-06-02T06:09:39.477Z,5.80
2018-06-02T06:11:32.508Z,5.30
2018-06-02T06:12:32.486Z,5.80
2018-06-02T06:14:25.561Z,5.50
2018-06-02T06:15:25.547Z,5.20
2018-06-02T06:17:18.462Z,5.60
2018-06-02T06:18:18.447Z,5.40
2018-06-02T06:20:12.494Z,5.30
2018-06-02T06:21:12.476Z,5.10
2018-06-02T06:23:05.521Z,5.20
2018-06-02T06:24:05.515Z,5.50
2018-06-02T06:25:58.523Z,5.70
2018-06-02T06:26:58.518Z,5.50
2018-06-02T06:28:51.510Z,5.50
2018-06-02T06:29:51.497Z,5.20
2018-06-02T06:31:44.502Z,5.40
2018-06-02T06:32:44.490Z,5.70
2018-06-02T06:34:37.498Z,4.80
2018-06-02T06:35:37.486Z,5.30
2018-06-02T06:37:30.417Z,5.20
2018-06-02T06:38:30.478Z,5.40
2018-06-02T06:40:23.388Z,5.20
2018-06-02T06:41:23.369Z,5.50
2018-06-02T06:43:16.388Z,4.80
2018-06-02T06:44:16.374Z,5.60
2018-06-02T06:46:09.334Z,4.20
2018-06-02T06:47:09.315Z,4.90
2018-06-02T06:49:02.335Z,4.30
2018-06-02T06:50:02.319Z,4.90
2018-06-02T06:51:55.254Z,4.70
2018-06-02T06:52:55.234Z,4.80
2018-06-02T06:54:49.249Z,5.20
2018-06-02T06:55:49.235Z,4.40
2018-06-02T06:57:42.143Z,5.00
2018-06-02T06:58:42.146Z,4.60
2018-06-02T07:00:35.083Z,4.50
2018-06-02T07:01:35.078Z,4.40
2018-06-02T07:03:28.105Z,4.50
2018-06-02T07:04:28.084Z,4.60
2018-06-02T07:06:21.101Z,4.30
2018-06-02T07:07:21.080Z,4.20
2018-06-02T07:09:14.098Z,4.50
2018-06-02T07:10:14.083Z,4.50
2018-06-02T07:12:07.175Z,4.60
2018-06-02T07:13:07.090Z,4.60
2018-06-02T07:15:00.114Z,4.40
2018-06-02T07:16:00.087Z,4.90
2018-06-02T07:17:53.163Z,5.00
2018-06-02T07:18:53.087Z,5.30
2018-06-02T07:20:46.118Z,5.00
2018-06-02T07:21:46.150Z,5.20
2018-06-02T07:23:39.121Z,5.40
2018-06-02T07:24:39.114Z,5.40
2018-06-02T07:26:32.129Z,4.70
2018-06-02T07:27:32.164Z,4.60
2018-06-02T07:29:25.177Z,5.60
2018-06-02T07:30:25.124Z,5.90
2018-06-02T07:32:18.182Z,5.10
2018-06-02T07:33:18.189Z,4.80
2018-06-02T07:35:11.167Z,5.20
2018-06-02T07:36:11.217Z,4.90
2018-06-02T07:38:04.131Z,5.00
2018-06-02T07:39:04.131Z,5.10
2018-06-02T07:40:57.109Z,5.40
2018-06-02T07:41:57.091Z,5.30
2018-06-02T07:43:50.112Z,5.40
2018-06-02T07:44:50.107Z,4.70
2018-06-02T07:46:43.103Z,4.90
2018-06-02T07:47:43.089Z,5.20
2018-06-02T07:49:36.101Z,4.90
2018-06-02T07:50:36.100Z,4.40
2018-06-02T07:52:29.142Z,4.20
2018-06-02T07:53:29.844Z,4.50
2018-06-02T07:55:22.084Z,4.40
2018-06-02T07:56:22.074Z,4.40
2018-06-02T07:58:15.061Z,4.80
2018-06-02T07:59:15.041Z,4.80
2018-06-02T08:01:08.045Z,5.00
2018-06-02T08:02:08.038Z,5.40
2018-06-02T08:04:00.982Z,5.00
2018-06-02T08:05:00.976Z,5.00
2018-06-02T08:06:53.973Z,4.80
2018-06-02T08:07:53.970Z,5.00
2018-06-02T08:09:46.937Z,4.80
2018-06-02T08:10:46.923Z,5.60
2018-06-02T08:12:39.902Z,4.60
2018-06-02T08:13:39.900Z,5.20
2018-06-02T08:15:32.923Z,5.10
2018-06-02T08:16:32.914Z,5.00
2018-06-02T08:18:25.925Z,5.00
2018-06-02T08:19:25.923Z,4.80
2018-06-02T08:21:18.868Z,5.00
2018-06-02T08:22:18.847Z,5.50
2018-06-02T08:24:11.832Z,5.60
2018-06-02T08:25:11.832Z,5.50
2018-06-02T08:27:04.784Z,5.20
2018-06-02T08:28:04.773Z,5.30
2018-06-02T08:29:57.714Z,5.50
2018-06-02T08:30:57.703Z,5.00
2018-06-02T08:32:50.645Z,5.10
2018-06-02T08:33:50.638Z,5.30
2018-06-02T08:35:43.608Z,5.50
2018-06-02T08:36:43.595Z,5.60
2018-06-02T08:38:36.607Z,5.80
2018-06-02T08:39:36.599Z,5.40
2018-06-02T08:41:29.610Z,5.20
2018-06-02T08:42:29.594Z,5.10
2018-06-02T08:44:22.586Z,5.60
2018-06-02T08:45:22.577Z,5.30
2018-06-02T08:47:15.515Z,5.00
2018-06-02T08:48:15.512Z,5.30
2018-06-02T08:50:08.538Z,6.10
2018-06-02T08:51:08.529Z,5.70
2018-06-02T08:53:01.461Z,5.20
2018-06-02T08:54:01.452Z,5.50
2018-06-02T08:55:54.486Z,5.10
2018-06-02T08:56:54.472Z,5.00
2018-06-02T08:58:47.484Z,4.90
2018-06-02T08:59:47.480Z,5.20
2018-06-02T09:01:40.489Z,5.00
2018-06-02T09:02:40.468Z,4.90
2018-06-02T09:04:33.482Z,5.10
2018-06-02T09:05:33.476Z,5.00
2018-06-02T09:07:26.488Z,4.70
2018-06-02T09:08:26.479Z,4.30
2018-06-02T09:10:19.461Z,4.20
2018-06-02T09:11:19.459Z,4.80
2018-06-02T09:13:12.368Z,4.60
2018-06-02T09:14:12.364Z,4.30
2018-06-02T09:16:05.341Z,4.90
2018-06-02T09:17:05.324Z,4.90
2018-06-02T09:18:58.308Z,4.90
2018-06-02T09:19:58.308Z,5.30
2018-06-02T09:21:51.271Z,4.40
2018-06-02T09:22:51.228Z,4.60
2018-06-02T09:24:44.154Z,5.10
2018-06-02T09:25:44.144Z,4.90
2018-06-02T09:27:37.119Z,4.30
2018-06-02T09:28:37.106Z,4.20
2018-06-02T09:30:30.088Z,4.60
2018-06-02T09:31:30.069Z,4.60
2018-06-02T09:33:23.017Z,4.30
2018-06-02T09:34:23.026Z,4.70
2018-06-02T09:36:16.017Z,4.90
2018-06-02T09:37:16.002Z,4.60
2018-06-02T09:39:08.935Z,3.80
2018-06-02T09:40:08.921Z,3.60
2018-06-02T09:42:01.891Z,3.50
2018-06-02T09:43:01.882Z,3.30
2018-06-02T09:44:54.848Z,2.90
2018-06-02T09:45:54.841Z,3.60
2018-06-02T09:47:47.871Z,3.00
2018-06-02T09:48:47.841Z,2.90
2018-06-02T09:50:40.850Z,4.20
2018-06-02T09:51:40.848Z,3.40
2018-06-02T09:53:33.839Z,3.90
2018-06-02T09:54:33.842Z,3.90
2018-06-02T09:56:26.834Z,3.80
2018-06-02T09:57:26.834Z,3.70
2018-06-02T09:59:19.765Z,3.40
2018-06-02T10:00:19.784Z,3.80
2018-06-02T10:02:12.845Z,3.30
2018-06-02T10:03:12.838Z,3.20
2018-06-02T10:05:05.794Z,3.50
2018-06-02T10:06:05.803Z,3.50
2018-06-02T10:07:58.844Z,3.50
2018-06-02T10:08:58.847Z,3.60
2018-06-02T10:10:51.904Z,3.70
2018-06-02T10:11:51.902Z,3.70
2018-06-02T10:13:44.873Z,3.80
2018-06-02T10:14:44.873Z,3.80
2018-06-02T10:16:37.828Z,4.60
2018-06-02T10:17:37.831Z,4.70
2018-06-02T10:19:30.848Z,4.30
2018-06-02T10:20:30.856Z,4.10
2018-06-02T10:22:23.868Z,2.90
2018-06-02T10:23:23.854Z,3.20
2018-06-02T10:25:16.837Z,3.10
2018-06-02T10:26:16.852Z,3.00
2018-06-02T10:28:09.823Z,2.90
2018-06-02T10:29:09.827Z,2.90
2018-06-02T10:31:02.780Z,3.30
2018-06-02T10:32:02.794Z,3.00
2018-06-02T10:33:55.730Z,3.10
2018-06-02T10:34:55.717Z,4.10
2018-06-02T10:36:48.748Z,4.10
2018-06-02T10:37:48.743Z,3.50
2018-06-02T10:39:41.696Z,3.60
2018-06-02T10:40:41.693Z,3.20
2018-06-02T10:42:34.651Z,2.60
2018-06-02T10:43:34.643Z,3.10
2018-06-02T10:45:27.596Z,3.30
2018-06-02T10:46:27.597Z,3.20
2018-06-02T10:47:27.607Z,3.20
2018-06-02T10:48:27.611Z,3.10
2018-06-02T10:49:27.629Z,3.40
2018-06-02T10:50:27.660Z,3.30
2018-06-02T10:51:27.654Z,3.20
2018-06-02T10:52:27.666Z,3.30
2018-06-02T10:53:27.685Z,3.10
2018-06-02T10:54:27.693Z,3.10
2018-06-02T10:55:27.706Z,3.20
2018-06-02T10:56:27.741Z,3.10
2018-06-02T10:57:27.736Z,3.10
2018-06-02T10:58:27.788Z,2.90
2018-06-02T10:59:27.770Z,3.30
2018-06-02T11:00:27.783Z,3.20
2018-06-02T11:01:27.797Z,3.00
2018-06-02T11:02:27.813Z,3.10
2018-06-02T11:03:27.822Z,3.20
2018-06-02T11:04:27.849Z,3.10
2018-06-02T11:05:27.885Z,3.00
2018-06-02T11:06:27.868Z,3.20
2018-06-02T11:07:27.878Z,3.40
2018-06-02T11:08:27.887Z,3.20
2018-06-02T11:09:27.899Z,3.70
2018-06-02T11:10:27.952Z,3.40
2018-06-02T11:11:27.921Z,3.00
2018-06-02T11:12:27.932Z,3.10
2018-06-02T11:13:27.937Z,3.00
2018-06-02T11:14:27.993Z,2.70
2018-06-02T11:15:27.963Z,3.30
2018-06-02T11:16:27.976Z,3.00
2018-06-02T11:17:27.979Z,3.40
2018-06-02T11:18:27.980Z,3.50
2018-06-02T11:19:28.031Z,3.60
2018-06-02T11:20:28.012Z,3.20
2018-06-02T11:21:28.023Z,2.90
2018-06-02T11:22:28.032Z,3.10
2018-06-02T11:23:28.048Z,3.00
2018-06-02T11:24:28.064Z,3.10
2018-06-02T11:25:28.073Z,3.30
2018-06-02T11:26:28.081Z,3.20
2018-06-02T11:27:28.123Z,3.10
2018-06-02T11:28:28.134Z,3.00
2018-06-02T11:29:28.126Z,2.80
2018-06-02T11:30:28.145Z,2.90
2018-06-02T11:31:28.157Z,3.30
2018-06-02T11:32:28.168Z,3.30
2018-06-02T11:33:28.178Z,3.00
2018-06-02T11:34:28.208Z,3.10
2018-06-02T11:35:28.226Z,3.40
2018-06-02T11:36:28.237Z,3.10
2018-06-02T11:37:28.256Z,3.30
2018-06-02T11:38:28.297Z,3.30
2018-06-02T11:39:28.308Z,3.40
2018-06-02T11:40:28.316Z,3.40
2018-06-02T11:41:28.327Z,3.20
2018-06-02T11:42:28.340Z,3.30
2018-06-02T11:43:28.371Z,3.00
2018-06-02T11:44:28.386Z,3.60
2018-06-02T11:45:28.402Z,3.30
2018-06-02T11:46:28.424Z,3.40
2018-06-02T11:47:28.470Z,3.20
2018-06-02T11:48:28.477Z,3.20
2018-06-02T11:49:28.479Z,3.10
2018-06-02T11:50:28.496Z,3.50
2018-06-02T11:51:28.532Z,3.70
2018-06-02T11:52:28.538Z,3.50
2018-06-02T11:53:28.557Z,3.40
2018-06-02T11:54:28.569Z,3.70
2018-06-02T11:55:28.619Z,3.20
2018-06-02T11:56:28.605Z,3.70
2018-06-02T11:57:28.637Z,3.30
2018-06-02T11:58:28.648Z,3.40
2018-06-02T11:59:28.661Z,3.10
2018-06-02T12:00:28.687Z,3.10
2018-06-02T12:01:28.706Z,3.20
2018-06-02T12:02:28.726Z,3.30
2018-06-02T12:03:28.755Z,3.30
2018-06-02T12:04:28.790Z,3.30
2018-06-02T12:05:28.796Z,3.40
2018-06-02T12:06:28.801Z,3.30
2018-06-02T12:07:28.823Z,3.30
2018-06-02T12:08:28.844Z,3.50
2018-06-02T12:09:28.863Z,2.90
2018-06-02T12:10:28.890Z,3.40
2018-06-02T12:11:28.896Z,3.30
2018-06-02T12:12:28.954Z,3.20
2018-06-02T12:13:28.944Z,3.30
2018-06-02T12:14:28.959Z,3.30
2018-06-02T12:15:28.969Z,3.00
2018-06-02T12:16:29.281Z,3.10
2018-06-02T12:17:29.102Z,3.00
2018-06-02T12:18:29.032Z,3.10
2018-06-02T12:19:29.053Z,3.00
2018-06-02T12:20:29.066Z,3.10
2018-06-02T12:21:29.105Z,3.00
2018-06-02T12:22:29.100Z,3.10
2018-06-02T12:23:29.119Z,3.00
2018-06-02T12:24:29.143Z,3.00
2018-06-02T12:25:29.155Z,3.00
2018-06-02T12:26:29.180Z,2.80
2018-06-02T12:27:29.198Z,2.70
2018-06-02T12:28:29.245Z,2.10
2018-06-02T12:29:29.227Z,2.80
2018-06-02T12:30:29.277Z,2.20
2018-06-02T12:31:29.273Z,2.50
2018-06-02T12:32:29.289Z,2.30
2018-06-02T12:33:29.290Z,2.20
2018-06-02T12:34:29.302Z,2.90
2018-06-02T12:35:29.315Z,2.60
2018-06-02T12:36:29.323Z,2.60
2018-06-02T12:37:29.344Z,2.40
2018-06-02T12:38:29.362Z,2.60
2018-06-02T12:39:29.382Z,2.60
2018-06-02T12:40:29.381Z,2.60
2018-06-02T12:41:29.394Z,2.90
2018-06-02T12:42:29.410Z,3.00
2018-06-02T12:43:29.416Z,2.60
2018-06-02T12:44:29.427Z,2.80
2018-06-02T12:45:29.430Z,2.60
2018-06-02T12:46:29.444Z,2.70
2018-06-02T12:47:29.449Z,3.00
2018-06-02T12:48:29.460Z,5.20
2018-06-02T12:49:29.472Z,2.70
2018-06-02T12:50:29.476Z,2.80
2018-06-02T12:51:29.483Z,2.70
2018-06-02T12:52:29.490Z,2.80
2018-06-02T12:53:29.501Z,2.80
2018-06-02T12:54:29.508Z,3.00
2018-06-02T12:55:29.535Z,2.80
2018-06-02T12:56:29.525Z,3.20
2018-06-02T12:57:29.526Z,3.00
2018-06-02T12:58:29.555Z,3.00
2018-06-02T12:59:29.542Z,3.10
2018-06-02T13:00:29.550Z,2.80
2018-06-02T13:01:29.553Z,3.00
2018-06-02T13:02:29.575Z,3.00
2018-06-02T13:03:29.569Z,3.10
2018-06-02T13:04:29.573Z,2.80
2018-06-02T13:05:29.579Z,2.80
2018-06-02T13:06:29.584Z,3.00
2018-06-02T13:07:29.591Z,3.00
2018-06-02T13:08:29.596Z,2.80
2018-06-02T13:09:29.605Z,2.90
2018-06-02T13:10:29.610Z,2.80
2018-06-02T13:11:29.616Z,2.80
2018-06-02T13:12:29.620Z,3.00
2018-06-02T13:13:29.625Z,3.10
2018-06-02T13:14:29.628Z,2.80
2018-06-02T13:15:29.635Z,2.70
2018-06-02T13:16:29.642Z,3.00
2018-06-02T13:17:29.644Z,2.80
2018-06-02T13:18:29.652Z,3.00
2018-06-02T13:19:29.656Z,2.80
2018-06-02T13:20:29.663Z,3.20
2018-06-02T13:21:29.666Z,2.90
2018-06-02T13:22:29.685Z,2.90
2018-06-02T13:23:29.696Z,3.30
2018-06-02T13:24:29.683Z,2.70
2018-06-02T13:25:29.690Z,2.90
2018-06-02T13:26:29.694Z,2.50
2018-06-02T13:27:29.698Z,2.70
2018-06-02T13:28:29.701Z,2.90
2018-06-02T13:29:29.709Z,3.30
2018-06-02T13:30:29.711Z,2.80
2018-06-02T13:31:29.719Z,2.70
2018-06-02T13:32:29.720Z,2.60
2018-06-02T13:33:29.727Z,2.60
2018-06-02T13:34:29.732Z,2.80
2018-06-02T13:35:29.743Z,2.80
2018-06-02T13:36:29.742Z,2.80
2018-06-02T13:37:29.745Z,2.80
2018-06-02T13:38:29.752Z,2.60
2018-06-02T13:39:29.764Z,2.80
2018-06-02T13:40:29.761Z,2.70
2018-06-02T13:41:29.763Z,2.80
2018-06-02T13:42:29.768Z,2.90
2018-06-02T13:43:29.779Z,2.70
2018-06-02T13:44:29.780Z,3.00
2018-06-02T13:45:29.780Z,2.80
2018-06-02T13:46:29.795Z,2.90
2018-06-02T13:47:29.795Z,2.60
2018-06-02T13:48:29.799Z,2.90
2018-06-02T13:49:29.802Z,2.60
2018-06-02T13:50:29.814Z,2.60
2018-06-02T13:51:29.820Z,2.60
2018-06-02T13:52:29.817Z,2.80
2018-06-02T13:53:29.839Z,2.70
2018-06-02T13:54:29.840Z,2.40
2018-06-02T13:55:29.832Z,2.70
2018-06-02T13:56:29.837Z,2.70
2018-06-02T13:57:29.897Z,2.30
2018-06-02T13:58:29.863Z,3.20
2018-06-02T13:59:29.862Z,2.80
2018-06-02T14:00:29.864Z,2.70
2018-06-02T14:01:29.856Z,2.70
2018-06-02T14:02:29.864Z,2.70
2018-06-02T14:03:29.872Z,2.70
2018-06-02T14:04:29.876Z,3.90
2018-06-02T14:05:29.882Z,2.80
2018-06-02T14:06:29.881Z,2.60
2018-06-02T14:07:29.893Z,2.60
2018-06-02T14:08:29.891Z,2.80
2018-06-02T14:09:29.894Z,2.60
2018-06-02T14:10:29.911Z,2.70
2018-06-02T14:11:29.914Z,2.40
2018-06-02T14:12:29.924Z,2.20
2018-06-02T14:13:29.920Z,2.80
2018-06-02T14:14:29.925Z,2.50
2018-06-02T14:15:29.933Z,2.70
2018-06-02T14:16:29.931Z,2.60
2018-06-02T14:17:29.938Z,3.30
2018-06-02T14:18:29.990Z,2.50
2018-06-02T14:19:29.947Z,2.50
2018-06-02T14:20:29.991Z,2.30
2018-06-02T14:21:29.958Z,2.60
2018-06-02T14:22:29.981Z,3.30
2018-06-02T14:23:29.970Z,2.70
2018-06-02T14:24:29.976Z,2.50
2018-06-02T14:25:30.057Z,2.80
2018-06-02T14:26:29.989Z,2.40
2018-06-02T14:27:29.995Z,2.90
2018-06-02T14:28:30.000Z,2.30
2018-06-02T14:29:30.006Z,2.50
2018-06-02T14:30:30.011Z,2.80
2018-06-02T14:31:30.017Z,2.40
2018-06-02T14:32:30.022Z,2.30
2018-06-02T14:33:30.033Z,2.60
2018-06-02T14:34:30.038Z,2.40
2018-06-02T14:35:30.044Z,2.20
2018-06-02T14:36:30.040Z,2.40
2018-06-02T14:37:30.052Z,2.30
2018-06-02T14:38:30.056Z,2.10
2018-06-02T14:39:30.062Z,2.80
2018-06-02T14:40:30.063Z,2.30
2018-06-02T14:41:30.078Z,2.30
2018-06-02T14:42:30.134Z,2.30
2018-06-02T14:43:30.090Z,2.40
2018-06-02T14:44:30.082Z,2.20
2018-06-02T14:45:30.092Z,2.90
2018-06-02T14:46:30.099Z,2.50
2018-06-02T14:47:30.097Z,2.60
2018-06-02T14:48:30.103Z,2.70
2018-06-02T14:49:30.111Z,2.40
2018-06-02T14:50:30.117Z,2.50
2018-06-02T14:51:30.125Z,2.80
2018-06-02T14:52:30.124Z,2.10
2018-06-02T14:53:30.136Z,2.30
2018-06-02T14:54:30.149Z,2.50
2018-06-02T14:55:30.144Z,2.20
2018-06-02T14:56:30.148Z,2.20
2018-06-02T14:57:30.165Z,2.30
2018-06-02T14:58:30.154Z,2.20
2018-06-02T14:59:30.167Z,2.20
2018-06-02T15:00:30.165Z,2.30
2018-06-02T15:01:30.166Z,2.90
2018-06-02T15:02:30.175Z,2.70
2018-06-02T15:03:30.179Z,2.30
2018-06-02T15:04:30.199Z,2.30
2018-06-02T15:05:30.213Z,2.30
2018-06-02T15:06:30.191Z,2.30
2018-06-02T15:07:30.194Z,2.20
2018-06-02T15:08:30.196Z,2.20
2018-06-02T15:09:30.225Z,2.40
2018-06-02T15:10:30.208Z,2.50
2018-06-02T15:11:30.220Z,2.20
2018-06-02T15:12:30.222Z,2.40
2018-06-02T15:13:30.221Z,2.20
2018-06-02T15:14:30.223Z,2.60
2018-06-02T15:15:30.227Z,2.50
2018-06-02T15:16:30.231Z,2.90
2018-06-02T15:17:30.240Z,2.20
2018-06-02T15:18:30.239Z,2.30
2018-06-02T15:19:30.244Z,2.60
2018-06-02T15:20:30.248Z,2.30
2018-06-02T15:21:30.249Z,2.10
2018-06-02T15:22:30.253Z,2.20
2018-06-02T15:23:30.252Z,2.20
2018-06-02T15:24:30.250Z,2.30
2018-06-02T15:25:30.257Z,2.20
2018-06-02T15:26:30.258Z,2.30
2018-06-02T15:27:30.274Z,2.30
2018-06-02T15:28:30.278Z,2.50
2018-06-02T15:29:30.292Z,2.20
2018-06-02T15:30:30.283Z,2.10
2018-06-02T15:31:30.314Z,2.70
2018-06-02T15:32:30.286Z,2.20
2018-06-02T15:33:30.293Z,2.50
2018-06-02T15:34:30.296Z,2.20
2018-06-02T15:35:30.304Z,4.80
2018-06-02T15:36:30.321Z,4.10
2018-06-02T15:37:30.310Z,4.10
2018-06-02T15:38:30.330Z,13.90
2018-06-02T15:39:30.335Z,60.10
2018-06-02T15:40:30.341Z,5.80
2018-06-02T15:41:30.323Z,2.30
2018-06-02T15:42:30.327Z,2.80
2018-06-02T15:43:30.332Z,5.00
2018-06-02T15:44:30.335Z,2.70
2018-06-02T15:45:30.337Z,2.50
2018-06-02T15:46:30.343Z,2.40
2018-06-02T15:47:30.350Z,2.50
2018-06-02T15:48:30.354Z,2.20
2018-06-02T15:49:30.386Z,2.80
2018-06-02T15:50:30.377Z,2.60
2018-06-02T15:51:30.361Z,2.50
2018-06-02T15:52:30.370Z,2.20
2018-06-02T15:53:30.368Z,2.20
2018-06-02T15:54:30.373Z,2.30
2018-06-02T15:55:30.382Z,2.40
2018-06-02T15:56:30.380Z,2.40
2018-06-02T15:57:30.385Z,2.80
2018-06-02T15:58:30.384Z,2.50
2018-06-02T15:59:30.394Z,2.70
2018-06-02T16:00:30.400Z,2.40
2018-06-02T16:01:30.406Z,2.50
2018-06-02T16:02:30.408Z,3.20
2018-06-02T16:03:30.444Z,2.70
2018-06-02T16:04:30.415Z,2.20
2018-06-02T16:05:30.428Z,2.50
2018-06-02T16:06:30.419Z,3.00
2018-06-02T16:07:30.428Z,2.50
2018-06-02T16:08:30.431Z,2.60
2018-06-02T16:09:30.434Z,2.20
2018-06-02T16:10:30.439Z,2.30
2018-06-02T16:11:30.446Z,2.30
2018-06-02T16:12:30.452Z,2.40
2018-06-02T16:13:30.473Z,2.50
2018-06-02T16:14:30.466Z,2.20
2018-06-02T16:15:30.461Z,2.30
2018-06-02T16:16:30.464Z,2.20
2018-06-02T16:17:30.491Z,2.30
2018-06-02T16:18:30.471Z,2.50
2018-06-02T16:19:30.477Z,2.30
2018-06-02T16:20:30.473Z,2.20
2018-06-02T16:21:30.486Z,2.20
2018-06-02T16:22:30.488Z,2.30
2018-06-02T16:23:30.486Z,2.90
2018-06-02T16:24:30.490Z,2.50
2018-06-02T16:25:30.493Z,2.20
2018-06-02T16:26:30.498Z,2.50
2018-06-02T16:27:30.535Z,2.20
2018-06-02T16:28:30.501Z,2.20